createdAt,value
2019-03-28T00:00:19.621Z,5.2
2019-03-28T00:01:19.625Z,5.21
2019-03-28T00:02:19.577Z,5.22
2019-03-28T00:03:19.589Z,5.22
2019-03-28T00:04:19.605Z,5.27
2019-03-28T00:05:19.683Z,5.25
2019-03-28T00:06:19.582Z,5.26
2019-03-28T00:07:19.665Z,5.26
2019-03-28T00:08:19.633Z,5.27
2019-03-28T00:09:20.175Z,5.28
2019-03-28T00:10:20.948Z,5.27
2019-03-28T00:11:19.593Z,5.27
2019-03-28T00:12:19.566Z,5.28
2019-03-28T00:13:19.587Z,5.27
2019-03-28T00:14:20.554Z,5.19
2019-03-28T00:15:19.672Z,5.13
2019-03-28T00:16:19.586Z,5.14
2019-03-28T00:17:19.584Z,5.11
2019-03-28T00:18:19.579Z,5.11
2019-03-28T00:19:19.643Z,5.08
2019-03-28T00:20:19.560Z,5.09
2019-03-28T00:21:19.564Z,5.06
2019-03-28T00:22:19.557Z,5.03
2019-03-28T00:23:19.547Z,5.06
2019-03-28T00:24:19.606Z,5.04
2019-03-28T00:25:19.592Z,5.04
2019-03-28T00:26:32.245Z,5.01
2019-03-28T00:27:19.573Z,4.99
2019-03-28T00:28:19.593Z,4.78
2019-03-28T00:29:19.564Z,4.76
2019-03-28T00:30:19.683Z,4.81
2019-03-28T00:31:19.591Z,4.8
2019-03-28T00:32:19.627Z,4.81
2019-03-28T00:33:19.638Z,4.81
2019-03-28T00:34:19.570Z,4.8
2019-03-28T00:35:19.576Z,4.64
2019-03-28T00:36:19.558Z,4.71
2019-03-28T00:37:21.014Z,4.72
2019-03-28T00:38:19.551Z,4.74
2019-03-28T00:39:19.583Z,4.75
2019-03-28T00:40:19.558Z,4.76
2019-03-28T00:41:20.557Z,4.76
2019-03-28T00:42:19.540Z,4.76
2019-03-28T00:43:19.551Z,4.77
2019-03-28T00:44:19.514Z,4.77
2019-03-28T00:45:19.551Z,4.76
2019-03-28T00:46:19.519Z,4.77
2019-03-28T00:47:19.597Z,4.77
2019-03-28T00:48:19.527Z,4.77
2019-03-28T00:49:19.554Z,4.79
2019-03-28T00:50:19.514Z,4.83
2019-03-28T00:51:19.527Z,4.84
2019-03-28T00:52:19.523Z,4.84
2019-03-28T00:53:19.525Z,4.84
2019-03-28T00:54:19.529Z,4.84
2019-03-28T00:55:19.526Z,4.81
2019-03-28T00:56:19.565Z,4.82
2019-03-28T00:57:19.899Z,4.82
2019-03-28T00:58:19.562Z,4.83
2019-03-28T00:59:19.599Z,4.85
2019-03-28T01:00:20.797Z,4.86
2019-03-28T01:01:19.556Z,4.84
2019-03-28T01:02:19.501Z,4.84
2019-03-28T01:03:19.500Z,4.84
2019-03-28T01:04:19.495Z,4.83
2019-03-28T01:05:19.541Z,4.81
2019-03-28T01:06:19.496Z,4.8
2019-03-28T01:07:19.524Z,4.81
2019-03-28T01:08:19.474Z,4.8
2019-03-28T01:09:19.510Z,4.76
2019-03-28T01:10:19.468Z,4.75
2019-03-28T01:11:19.491Z,4.72
2019-03-28T01:12:19.557Z,4.71
2019-03-28T01:13:19.563Z,4.71
2019-03-28T01:14:19.522Z,4.71
2019-03-28T01:15:19.525Z,4.72
2019-03-28T01:16:19.459Z,4.76
2019-03-28T01:17:19.476Z,4.76
2019-03-28T01:18:20.485Z,4.72
2019-03-28T01:19:19.503Z,4.69
2019-03-28T01:20:19.489Z,4.68
2019-03-28T01:21:19.477Z,4.67
2019-03-28T01:22:19.449Z,4.64
2019-03-28T01:23:19.503Z,4.63
2019-03-28T01:24:19.445Z,4.63
2019-03-28T01:25:19.468Z,4.61
2019-03-28T01:26:19.483Z,4.59
2019-03-28T01:27:19.488Z,4.58
2019-03-28T01:28:19.489Z,4.57
2019-03-28T01:29:19.510Z,4.57
2019-03-28T01:30:19.525Z,4.55
2019-03-28T01:31:19.499Z,4.57
2019-03-28T01:32:19.498Z,4.56
2019-03-28T01:33:19.461Z,4.53
2019-03-28T01:34:19.498Z,4.5
2019-03-28T01:35:19.485Z,4.47
2019-03-28T01:36:19.462Z,4.45
2019-03-28T01:37:19.578Z,4.45
2019-03-28T01:38:20.601Z,4.43
2019-03-28T01:39:21.306Z,4.41
2019-03-28T01:40:19.634Z,4.38
2019-03-28T01:41:19.467Z,4.38
2019-03-28T01:42:19.529Z,4.38
2019-03-28T01:43:20.459Z,4.36
2019-03-28T01:44:19.447Z,4.38
2019-03-28T01:45:19.463Z,4.36
2019-03-28T01:46:19.420Z,4.38
2019-03-28T01:47:19.458Z,4.38
2019-03-28T01:48:19.419Z,4.36
2019-03-28T01:49:19.415Z,4.32
2019-03-28T01:50:19.417Z,4.28
2019-03-28T01:51:19.405Z,4.3
2019-03-28T01:52:19.425Z,4.27
2019-03-28T01:53:19.439Z,4.26
2019-03-28T01:54:19.436Z,4.25
2019-03-28T01:55:19.432Z,4.19
2019-03-28T01:56:19.409Z,4.19
2019-03-28T01:57:19.437Z,4.15
2019-03-28T01:58:19.424Z,4.15
2019-03-28T01:59:19.417Z,4.14
2019-03-28T02:00:19.406Z,4.11
2019-03-28T02:01:19.816Z,4.06
2019-03-28T02:02:20.502Z,4
2019-03-28T02:03:19.480Z,3.99
2019-03-28T02:04:19.440Z,3.97
2019-03-28T02:05:19.424Z,3.96
2019-03-28T02:06:19.408Z,3.96
2019-03-28T02:07:19.408Z,3.97
2019-03-28T02:08:19.381Z,4
2019-03-28T02:09:19.370Z,3.99
2019-03-28T02:10:19.385Z,4.02
2019-03-28T02:11:19.372Z,4.03
2019-03-28T02:12:19.389Z,4.02
2019-03-28T02:13:19.396Z,4.06
2019-03-28T02:14:19.411Z,4.05
2019-03-28T02:15:19.398Z,3.99
2019-03-28T02:16:19.405Z,3.96
2019-03-28T02:17:19.372Z,3.96
2019-03-28T02:18:19.371Z,3.92
2019-03-28T02:19:19.796Z,3.9
2019-03-28T02:20:19.402Z,3.88
2019-03-28T02:21:19.503Z,3.87
2019-03-28T02:22:19.802Z,3.87
2019-03-28T02:23:19.546Z,3.86
2019-03-28T02:24:19.347Z,3.85
2019-03-28T02:25:19.419Z,3.87
2019-03-28T02:26:20.569Z,3.85
2019-03-28T02:27:26.334Z,3.84
2019-03-28T02:28:19.395Z,3.84
2019-03-28T02:29:19.391Z,3.84
2019-03-28T02:30:19.388Z,3.84
2019-03-28T02:31:19.575Z,3.84
2019-03-28T02:32:19.410Z,3.84
2019-03-28T02:33:19.457Z,3.86
2019-03-28T02:34:19.390Z,3.85
2019-03-28T02:35:19.558Z,3.83
2019-03-28T02:36:19.418Z,3.83
2019-03-28T02:37:19.373Z,3.83
2019-03-28T02:38:19.489Z,3.82
2019-03-28T02:39:19.431Z,3.78
2019-03-28T02:40:19.422Z,3.78
2019-03-28T02:41:19.387Z,3.8
2019-03-28T02:42:19.429Z,3.79
2019-03-28T02:43:20.427Z,3.76
2019-03-28T02:44:19.437Z,3.73
2019-03-28T02:45:19.359Z,3.69
2019-03-28T02:46:19.404Z,3.68
2019-03-28T02:47:20.640Z,3.66
2019-03-28T02:48:19.386Z,3.62
2019-03-28T02:49:20.371Z,3.62
2019-03-28T02:50:19.357Z,3.62
2019-03-28T02:51:19.387Z,3.62
2019-03-28T02:52:19.380Z,3.61
2019-03-28T02:53:19.371Z,3.6
2019-03-28T02:54:19.394Z,3.61
2019-03-28T02:55:19.415Z,3.62
2019-03-28T02:56:20.486Z,3.62
2019-03-28T02:57:20.296Z,3.62
2019-03-28T02:58:19.440Z,3.63
2019-03-28T02:59:19.367Z,3.62
2019-03-28T03:00:21.297Z,3.62
2019-03-28T03:01:19.313Z,3.63
2019-03-28T03:02:19.320Z,3.6
2019-03-28T03:03:19.430Z,3.6
2019-03-28T03:04:19.415Z,3.57
2019-03-28T03:05:19.463Z,3.55
2019-03-28T03:06:19.473Z,3.55
2019-03-28T03:07:19.433Z,3.52
2019-03-28T03:08:19.440Z,3.5
2019-03-28T03:09:19.392Z,3.5
2019-03-28T03:10:19.350Z,3.5
2019-03-28T03:11:21.022Z,3.51
2019-03-28T03:12:19.412Z,3.51
2019-03-28T03:13:20.326Z,3.51
2019-03-28T03:14:19.428Z,3.5
2019-03-28T03:15:19.360Z,3.5
2019-03-28T03:16:19.345Z,3.48
2019-03-28T03:17:20.609Z,3.44
2019-03-28T03:18:22.135Z,3.44
2019-03-28T03:19:19.450Z,3.42
2019-03-28T03:20:19.308Z,3.41
2019-03-28T03:21:19.304Z,3.38
2019-03-28T03:22:19.355Z,3.37
2019-03-28T03:23:20.649Z,3.37
2019-03-28T03:24:19.389Z,3.37
2019-03-28T03:25:19.443Z,3.37
2019-03-28T03:26:19.367Z,3.38
2019-03-28T03:27:19.602Z,3.37
2019-03-28T03:28:19.317Z,3.38
2019-03-28T03:29:19.295Z,3.39
2019-03-28T03:30:19.414Z,3.42
2019-03-28T03:31:26.823Z,3.43
2019-03-28T03:32:20.006Z,3.43
2019-03-28T03:33:19.461Z,3.41
2019-03-28T03:34:19.379Z,3.35
2019-03-28T03:35:19.397Z,3.33
2019-03-28T03:36:19.296Z,3.28
2019-03-28T03:37:19.333Z,3.28
2019-03-28T03:38:19.357Z,3.27
2019-03-28T03:39:19.241Z,3.21
2019-03-28T03:40:19.273Z,3.2
2019-03-28T03:41:19.437Z,3.21
2019-03-28T03:42:19.436Z,3.22
2019-03-28T03:43:19.276Z,3.07
2019-03-28T03:44:19.252Z,3.05
2019-03-28T03:45:19.282Z,3.07
2019-03-28T03:46:19.274Z,3.06
2019-03-28T03:47:20.231Z,3.07
2019-03-28T03:48:19.507Z,3.06
2019-03-28T03:49:19.540Z,3.06
2019-03-28T03:50:19.285Z,3.06
2019-03-28T03:51:19.325Z,3.05
2019-03-28T03:52:19.272Z,3.05
2019-03-28T03:53:19.351Z,2.95
2019-03-28T03:54:19.279Z,2.99
2019-03-28T03:55:19.326Z,2.95
2019-03-28T03:56:19.295Z,2.92
2019-03-28T03:57:19.257Z,2.92
2019-03-28T03:58:19.712Z,2.88
2019-03-28T03:59:19.318Z,2.85
2019-03-28T04:00:19.294Z,2.89
2019-03-28T04:01:19.198Z,2.92
2019-03-28T04:02:19.268Z,2.93
2019-03-28T04:03:19.217Z,2.95
2019-03-28T04:04:19.261Z,2.89
2019-03-28T04:05:19.258Z,2.88
2019-03-28T04:06:19.272Z,2.87
2019-03-28T04:07:19.243Z,2.87
2019-03-28T04:08:19.311Z,2.88
2019-03-28T04:09:19.237Z,2.88
2019-03-28T04:10:19.467Z,2.87
2019-03-28T04:11:19.269Z,2.88
2019-03-28T04:12:19.387Z,2.88
2019-03-28T04:13:19.284Z,2.91
2019-03-28T04:14:19.423Z,2.93
2019-03-28T04:15:19.249Z,2.93
2019-03-28T04:16:19.285Z,2.97
2019-03-28T04:17:19.257Z,2.94
2019-03-28T04:18:22.922Z,2.97
2019-03-28T04:19:19.317Z,2.98
2019-03-28T04:20:19.208Z,2.99
2019-03-28T04:21:19.256Z,3.03
2019-03-28T04:22:19.222Z,3.01
2019-03-28T04:23:19.250Z,3.05
2019-03-28T04:24:19.222Z,3.06
2019-03-28T04:25:19.241Z,3.07
2019-03-28T04:26:19.240Z,2.98
2019-03-28T04:27:19.456Z,2.91
2019-03-28T04:28:32.979Z,2.8
2019-03-28T04:29:19.304Z,2.75
2019-03-28T04:30:19.220Z,2.69
2019-03-28T04:31:19.405Z,2.62
2019-03-28T04:32:20.989Z,2.51
2019-03-28T04:33:19.275Z,2.56
2019-03-28T04:34:19.212Z,2.52
2019-03-28T04:35:19.176Z,2.49
2019-03-28T04:36:19.227Z,2.49
2019-03-28T04:37:19.264Z,2.51
2019-03-28T04:38:19.218Z,2.51
2019-03-28T04:39:19.191Z,2.5
2019-03-28T04:40:19.202Z,2.51
2019-03-28T04:41:19.183Z,2.49
2019-03-28T04:42:19.247Z,2.5
2019-03-28T04:43:19.187Z,2.53
2019-03-28T04:44:19.188Z,2.55
2019-03-28T04:45:19.182Z,2.55
2019-03-28T04:46:19.176Z,2.55
2019-03-28T04:47:19.167Z,2.55
2019-03-28T04:48:19.228Z,2.55
2019-03-28T04:49:19.295Z,2.52
2019-03-28T04:50:19.183Z,2.49
2019-03-28T04:51:19.240Z,2.54
2019-03-28T04:52:19.834Z,2.53
2019-03-28T04:53:19.396Z,2.51
2019-03-28T04:54:19.377Z,2.55
2019-03-28T04:55:19.173Z,2.55
2019-03-28T04:56:19.179Z,2.57
2019-03-28T04:57:19.161Z,2.46
2019-03-28T04:58:23.785Z,2.48
2019-03-28T04:59:19.187Z,2.5
2019-03-28T05:00:19.248Z,2.52
2019-03-28T05:01:19.140Z,2.56
2019-03-28T05:02:19.204Z,2.57
2019-03-28T05:03:19.184Z,2.58
2019-03-28T05:04:21.566Z,2.55
2019-03-28T05:05:19.153Z,2.37
2019-03-28T05:06:19.141Z,2.42
2019-03-28T05:07:19.180Z,2.42
2019-03-28T05:08:19.157Z,2.44
2019-03-28T05:09:19.183Z,2.43
2019-03-28T05:10:19.238Z,2.42
2019-03-28T05:11:19.140Z,2.46
2019-03-28T05:12:19.292Z,2.43
2019-03-28T05:13:20.499Z,2.47
2019-03-28T05:14:19.246Z,2.47
2019-03-28T05:15:20.816Z,2.47
2019-03-28T05:16:19.132Z,2.47
2019-03-28T05:17:19.141Z,2.42
2019-03-28T05:18:19.135Z,2.4
2019-03-28T05:19:19.219Z,2.26
2019-03-28T05:20:19.105Z,2.29
2019-03-28T05:21:19.240Z,2.23
2019-03-28T05:22:20.088Z,2.27
2019-03-28T05:23:19.150Z,2.28
2019-03-28T05:24:19.147Z,2.29
2019-03-28T05:25:19.130Z,2.29
2019-03-28T05:26:19.085Z,2.3
2019-03-28T05:27:19.119Z,2.3
2019-03-28T05:28:19.105Z,2.31
2019-03-28T05:29:19.148Z,2.34
2019-03-28T05:30:19.116Z,2.34
2019-03-28T05:31:19.100Z,2.32
2019-03-28T05:32:19.072Z,2.32
2019-03-28T05:33:19.102Z,2.34
2019-03-28T05:34:19.070Z,2.37
2019-03-28T05:35:19.318Z,2.38
2019-03-28T05:36:19.153Z,2.37
2019-03-28T05:37:19.144Z,2.37
2019-03-28T05:38:19.100Z,2.38
2019-03-28T05:39:19.921Z,2.4
2019-03-28T05:40:19.062Z,2.4
2019-03-28T05:41:19.078Z,2.41
2019-03-28T05:42:19.178Z,2.4
2019-03-28T05:43:19.095Z,2.4
2019-03-28T05:44:19.102Z,2.41
2019-03-28T05:45:19.100Z,2.41
2019-03-28T05:46:19.105Z,2.42
2019-03-28T05:47:22.577Z,2.44
2019-03-28T05:48:19.193Z,2.45
2019-03-28T05:49:19.063Z,2.45
2019-03-28T05:50:19.053Z,2.47
2019-03-28T05:51:19.046Z,2.47
2019-03-28T05:52:19.045Z,2.48
2019-03-28T05:53:19.074Z,2.48
2019-03-28T05:54:19.083Z,2.51
2019-03-28T05:55:19.100Z,2.5
2019-03-28T05:56:19.066Z,2.52
2019-03-28T05:57:19.109Z,2.5
2019-03-28T05:58:19.280Z,2.51
2019-03-28T05:59:19.924Z,2.5
2019-03-28T06:00:19.139Z,2.51
2019-03-28T06:01:19.048Z,2.54
2019-03-28T06:02:19.064Z,2.57
2019-03-28T06:03:19.072Z,2.6
2019-03-28T06:04:19.036Z,2.66
2019-03-28T06:05:19.097Z,2.74
2019-03-28T06:06:19.068Z,2.78
2019-03-28T06:07:19.041Z,2.79
2019-03-28T06:08:19.070Z,2.8
2019-03-28T06:09:19.688Z,2.8
2019-03-28T06:10:19.096Z,2.84
2019-03-28T06:11:19.025Z,2.81
2019-03-28T06:12:19.706Z,2.82
2019-03-28T06:13:19.072Z,2.83
2019-03-28T06:14:19.053Z,2.83
2019-03-28T06:15:19.008Z,2.85
2019-03-28T06:16:19.021Z,2.86
2019-03-28T06:17:19.011Z,2.87
2019-03-28T06:18:19.107Z,2.88
2019-03-28T06:19:19.009Z,2.92
2019-03-28T06:20:19.052Z,2.95
2019-03-28T06:21:19.065Z,2.97
2019-03-28T06:22:19.009Z,2.98
2019-03-28T06:23:19.101Z,3.03
2019-03-28T06:24:19.192Z,3.04
2019-03-28T06:25:19.049Z,3.06
2019-03-28T06:26:19.092Z,3.1
2019-03-28T06:27:19.049Z,3.14
2019-03-28T06:28:19.049Z,3.16
2019-03-28T06:29:26.278Z,3.2
2019-03-28T06:30:19.089Z,3.22
2019-03-28T06:31:18.987Z,3.26
2019-03-28T06:32:19.048Z,3.28
2019-03-28T06:33:19.015Z,3.31
2019-03-28T06:34:19.135Z,3.34
2019-03-28T06:35:22.254Z,3.35
2019-03-28T06:36:19.126Z,3.4
2019-03-28T06:37:19.042Z,3.41
2019-03-28T06:38:19.006Z,3.44
2019-03-28T06:39:19.071Z,3.47
2019-03-28T06:40:19.367Z,3.49
2019-03-28T06:41:20.363Z,3.54
2019-03-28T06:42:19.052Z,3.57
2019-03-28T06:43:19.033Z,3.59
2019-03-28T06:44:19.029Z,3.64
2019-03-28T06:45:19.087Z,3.66
2019-03-28T06:46:19.066Z,3.69
2019-03-28T06:47:22.951Z,3.7
2019-03-28T06:48:19.025Z,3.74
2019-03-28T06:49:18.977Z,3.77
2019-03-28T06:50:19.007Z,3.77
2019-03-28T06:51:19.051Z,3.78
2019-03-28T06:52:19.109Z,3.8
2019-03-28T06:53:18.988Z,3.85
2019-03-28T06:54:19.018Z,3.88
2019-03-28T06:55:19.017Z,3.91
2019-03-28T06:56:19.183Z,3.91
2019-03-28T06:57:19.265Z,3.95
2019-03-28T06:58:19.094Z,3.98
2019-03-28T06:59:19.000Z,4.01
2019-03-28T07:00:19.026Z,4.02
2019-03-28T07:01:19.013Z,4.03
2019-03-28T07:02:22.361Z,4.02
2019-03-28T07:03:19.028Z,4.06
2019-03-28T07:04:19.013Z,4.08
2019-03-28T07:05:18.982Z,4.11
2019-03-28T07:06:18.958Z,4.14
2019-03-28T07:07:19.274Z,4.16
2019-03-28T07:08:18.968Z,4.19
2019-03-28T07:09:18.975Z,4.22
2019-03-28T07:10:18.950Z,4.25
2019-03-28T07:11:18.959Z,4.26
2019-03-28T07:12:19.028Z,4.27
2019-03-28T07:13:18.957Z,4.29
2019-03-28T07:14:18.913Z,4.31
2019-03-28T07:15:18.943Z,4.34
2019-03-28T07:16:25.549Z,4.36
2019-03-28T07:17:19.052Z,4.37
2019-03-28T07:18:18.991Z,4.37
2019-03-28T07:19:19.017Z,4.38
2019-03-28T07:20:18.997Z,4.43
2019-03-28T07:21:20.386Z,4.46
2019-03-28T07:22:18.992Z,4.45
2019-03-28T07:23:19.100Z,4.47
2019-03-28T07:24:19.094Z,4.49
2019-03-28T07:25:18.921Z,4.5
2019-03-28T07:26:18.937Z,4.54
2019-03-28T07:27:18.938Z,4.57
2019-03-28T07:28:18.977Z,4.59
2019-03-28T07:29:18.941Z,4.63
2019-03-28T07:30:19.846Z,4.63
2019-03-28T07:31:18.923Z,4.66
2019-03-28T07:32:19.016Z,4.72
2019-03-28T07:33:19.031Z,4.72
2019-03-28T07:34:18.918Z,4.76
2019-03-28T07:35:18.977Z,4.78
2019-03-28T07:36:18.917Z,4.8
2019-03-28T07:37:18.971Z,4.8
2019-03-28T07:38:18.922Z,4.85
2019-03-28T07:39:19.563Z,4.88
2019-03-28T07:40:18.988Z,4.89
2019-03-28T07:41:19.017Z,4.91
2019-03-28T07:42:18.929Z,4.98
2019-03-28T07:43:18.960Z,5
2019-03-28T07:44:18.946Z,5.02
2019-03-28T07:45:19.004Z,5.03
2019-03-28T07:46:19.016Z,5.04
2019-03-28T07:47:18.938Z,5.1
2019-03-28T07:48:18.941Z,5.13
2019-03-28T07:49:18.995Z,5.16
2019-03-28T07:50:18.881Z,5.2
2019-03-28T07:51:18.993Z,5.22
2019-03-28T07:52:20.587Z,5.27
2019-03-28T07:53:21.983Z,5.29
2019-03-28T07:54:18.920Z,5.33
2019-03-28T07:55:20.256Z,5.38
2019-03-28T07:56:18.903Z,5.45
2019-03-28T07:57:18.903Z,5.47
2019-03-28T07:58:18.882Z,5.55
2019-03-28T07:59:18.986Z,5.58
2019-03-28T08:00:19.028Z,5.6
2019-03-28T08:01:18.905Z,5.6
2019-03-28T08:02:18.928Z,5.6
2019-03-28T08:03:18.864Z,5.64
2019-03-28T08:04:18.878Z,5.66
2019-03-28T08:05:18.887Z,5.7
2019-03-28T08:06:18.878Z,5.71
2019-03-28T08:07:18.910Z,5.72
2019-03-28T08:08:18.900Z,5.74
2019-03-28T08:09:18.901Z,5.79
2019-03-28T08:10:18.880Z,5.8
2019-03-28T08:11:19.306Z,5.83
2019-03-28T08:12:23.925Z,5.83
2019-03-28T08:13:18.896Z,5.85
2019-03-28T08:14:18.856Z,5.86
2019-03-28T08:15:18.869Z,5.9
2019-03-28T08:16:18.842Z,5.91
2019-03-28T08:17:18.903Z,5.92
2019-03-28T08:18:19.914Z,5.95
2019-03-28T08:19:18.907Z,5.95
2019-03-28T08:20:18.886Z,5.98
2019-03-28T08:21:18.890Z,5.99
2019-03-28T08:22:18.849Z,6.01
2019-03-28T08:23:19.726Z,6.05
2019-03-28T08:24:18.916Z,6.09
2019-03-28T08:25:19.982Z,6.12
2019-03-28T08:26:18.883Z,6.17
2019-03-28T08:27:18.832Z,6.21
2019-03-28T08:28:19.007Z,6.24
2019-03-28T08:29:18.993Z,6.28
2019-03-28T08:30:19.982Z,6.31
2019-03-28T08:31:18.844Z,6.33
2019-03-28T08:32:18.842Z,6.35
2019-03-28T08:33:18.854Z,6.39
2019-03-28T08:34:19.240Z,6.43
2019-03-28T08:35:18.811Z,6.44
2019-03-28T08:36:18.842Z,6.49
2019-03-28T08:37:18.931Z,6.47
2019-03-28T08:38:18.832Z,6.48
2019-03-28T08:39:18.812Z,6.52
2019-03-28T08:40:18.814Z,6.54
2019-03-28T08:41:20.167Z,6.55
2019-03-28T08:42:20.065Z,6.57
2019-03-28T08:43:18.806Z,6.6
2019-03-28T08:44:21.086Z,6.65
2019-03-28T08:45:18.827Z,6.67
2019-03-28T08:46:18.848Z,6.7
2019-03-28T08:47:18.815Z,6.73
2019-03-28T08:48:18.857Z,6.74
2019-03-28T08:49:18.925Z,6.79
2019-03-28T08:50:18.831Z,6.79
2019-03-28T08:51:18.839Z,6.82
2019-03-28T08:52:18.821Z,6.85
2019-03-28T08:53:18.880Z,6.88
2019-03-28T08:54:18.793Z,6.91
2019-03-28T08:55:18.796Z,6.92
2019-03-28T08:56:18.832Z,6.97
2019-03-28T08:57:18.849Z,7.02
2019-03-28T08:58:18.827Z,7.04
2019-03-28T08:59:19.220Z,7.09
2019-03-28T09:01:19.694Z,7.17
2019-03-28T09:02:18.839Z,7.24
2019-03-28T09:03:18.831Z,7.29
2019-03-28T09:04:18.799Z,7.33
2019-03-28T09:05:18.778Z,7.33
2019-03-28T09:06:18.908Z,7.34
2019-03-28T09:07:18.824Z,7.35
2019-03-28T09:08:18.820Z,7.35
2019-03-28T09:09:21.791Z,7.39
2019-03-28T09:10:18.776Z,7.44
2019-03-28T09:11:21.968Z,7.48
2019-03-28T09:12:19.001Z,7.51
2019-03-28T09:13:19.224Z,7.53
2019-03-28T09:14:18.827Z,7.59
2019-03-28T09:15:19.124Z,7.67
2019-03-28T09:16:18.835Z,7.72
2019-03-28T09:17:18.784Z,7.79
2019-03-28T09:18:19.176Z,7.79
2019-03-28T09:19:19.158Z,7.82
2019-03-28T09:20:18.806Z,7.87
2019-03-28T09:21:18.777Z,7.94
2019-03-28T09:22:18.821Z,7.99
2019-03-28T09:23:18.750Z,8.1
2019-03-28T09:24:18.751Z,8.07
2019-03-28T09:25:18.865Z,8.11
2019-03-28T09:26:18.779Z,8.11
2019-03-28T09:27:18.736Z,8.14
2019-03-28T09:28:18.732Z,8.17
2019-03-28T09:29:18.880Z,8.24
2019-03-28T09:30:18.742Z,8.24
2019-03-28T09:31:20.848Z,8.34
2019-03-28T09:32:18.981Z,8.42
2019-03-28T09:33:18.901Z,8.51
2019-03-28T09:34:18.798Z,8.59
2019-03-28T09:35:18.746Z,8.65
2019-03-28T09:36:18.803Z,8.63
2019-03-28T09:37:18.898Z,8.7
2019-03-28T09:38:18.779Z,8.73
2019-03-28T09:39:20.097Z,8.81
2019-03-28T09:40:18.761Z,8.81
2019-03-28T09:41:19.843Z,8.86
2019-03-28T09:42:19.753Z,8.88
2019-03-28T09:43:18.785Z,8.93
2019-03-28T09:44:18.831Z,8.95
2019-03-28T09:45:18.724Z,9.04
2019-03-28T09:46:18.751Z,9.18
2019-03-28T09:47:18.731Z,9.2
2019-03-28T09:48:18.802Z,9.25
2019-03-28T09:49:18.702Z,9.28
2019-03-28T09:50:18.734Z,9.36
2019-03-28T09:51:18.729Z,9.41
2019-03-28T09:52:18.726Z,9.44
2019-03-28T09:53:18.681Z,9.45
2019-03-28T09:54:19.835Z,9.53
2019-03-28T09:55:19.344Z,9.64
2019-03-28T09:56:18.772Z,9.77
2019-03-28T09:57:18.826Z,9.86
2019-03-28T09:58:18.735Z,9.89
2019-03-28T09:59:18.735Z,9.93
2019-03-28T10:00:18.721Z,9.95
2019-03-28T10:01:18.833Z,10.02
2019-03-28T10:02:18.677Z,10.09
2019-03-28T10:03:18.701Z,10.08
2019-03-28T10:04:18.698Z,10.15
2019-03-28T10:05:18.681Z,10.21
2019-03-28T10:06:18.694Z,10.32
2019-03-28T10:07:18.786Z,10.29
2019-03-28T10:08:18.666Z,10.4
2019-03-28T10:09:18.670Z,10.36
2019-03-28T10:10:18.729Z,10.45
2019-03-28T10:11:18.729Z,10.51
2019-03-28T10:12:19.783Z,10.54
2019-03-28T10:13:18.671Z,10.63
2019-03-28T10:14:18.696Z,10.79
2019-03-28T10:15:18.708Z,10.74
2019-03-28T10:16:18.851Z,10.79
2019-03-28T10:17:18.771Z,10.8
2019-03-28T10:18:18.676Z,10.81
2019-03-28T10:19:18.686Z,10.81
2019-03-28T10:20:18.715Z,10.83
2019-03-28T10:21:18.693Z,10.84
2019-03-28T10:22:18.685Z,10.96
2019-03-28T10:23:18.699Z,11.1
2019-03-28T10:24:18.701Z,11.08
2019-03-28T10:25:18.678Z,11.11
2019-03-28T10:26:18.695Z,11.07
2019-03-28T10:27:19.657Z,11.13
2019-03-28T10:28:18.692Z,11.22
2019-03-28T10:29:18.659Z,11.2
2019-03-28T10:30:18.632Z,11.21
2019-03-28T10:31:18.681Z,11.27
2019-03-28T10:32:18.717Z,11.33
2019-03-28T10:33:18.684Z,11.41
2019-03-28T10:34:19.560Z,11.48
2019-03-28T10:35:18.668Z,11.55
2019-03-28T10:36:18.631Z,11.6
2019-03-28T10:37:18.883Z,11.62
2019-03-28T10:38:18.800Z,11.67
2019-03-28T10:39:18.787Z,11.8
2019-03-28T10:40:18.628Z,11.78
2019-03-28T10:41:18.660Z,11.76
2019-03-28T10:42:20.991Z,11.71
2019-03-28T10:43:18.614Z,11.76
2019-03-28T10:44:18.682Z,11.73
2019-03-28T10:45:18.644Z,11.77
2019-03-28T10:46:18.684Z,11.8
2019-03-28T10:47:18.642Z,11.83
2019-03-28T10:48:23.874Z,11.86
2019-03-28T10:49:18.633Z,11.85
2019-03-28T10:50:18.699Z,11.93
2019-03-28T10:51:18.640Z,12.02
2019-03-28T10:52:18.636Z,12.1
2019-03-28T10:53:18.623Z,12.18
2019-03-28T10:54:21.342Z,12.29
2019-03-28T10:55:18.661Z,12.26
2019-03-28T10:56:24.900Z,12.25
2019-03-28T10:57:32.761Z,12.3
2019-03-28T10:58:20.110Z,12.37
2019-03-28T10:59:25.820Z,12.38
2019-03-28T11:00:26.123Z,12.37
2019-03-28T11:01:51.380Z,12.43
2019-03-28T11:02:18.614Z,12.44
2019-03-28T11:03:18.617Z,12.49
2019-03-28T11:04:18.670Z,12.48
2019-03-28T11:05:18.671Z,12.66
2019-03-28T11:06:18.629Z,12.77
2019-03-28T11:07:18.655Z,12.76
2019-03-28T11:08:18.714Z,12.78
2019-03-28T11:09:18.688Z,12.71
2019-03-28T11:10:18.627Z,12.61
2019-03-28T11:11:18.635Z,12.8
2019-03-28T11:12:18.604Z,12.86
2019-03-28T11:13:18.621Z,12.82
2019-03-28T11:14:18.618Z,12.86
2019-03-28T11:15:18.622Z,12.92
2019-03-28T11:16:18.602Z,13
2019-03-28T11:17:18.638Z,13.01
2019-03-28T11:18:18.620Z,12.99
2019-03-28T11:19:18.631Z,13.09
2019-03-28T11:20:18.880Z,13.1
2019-03-28T11:21:18.625Z,13.17
2019-03-28T11:22:18.667Z,13.25
2019-03-28T11:23:18.674Z,13.22
2019-03-28T11:24:18.683Z,13.26
2019-03-28T11:25:18.584Z,13.35
2019-03-28T11:26:18.711Z,13.42
2019-03-28T11:27:18.612Z,13.34
2019-03-28T11:28:18.704Z,13.26
2019-03-28T11:29:18.862Z,13.33
2019-03-28T11:30:19.039Z,13.4
2019-03-28T11:31:18.621Z,13.5
2019-03-28T11:32:19.309Z,13.54
2019-03-28T11:33:18.598Z,13.46
2019-03-28T11:34:18.592Z,13.5
2019-03-28T11:35:18.836Z,13.56
2019-03-28T11:36:18.573Z,13.6
2019-03-28T11:38:18.956Z,13.82
2019-03-28T11:39:18.555Z,13.76
2019-03-28T11:40:19.511Z,13.73
2019-03-28T11:41:19.149Z,13.69
2019-03-28T11:42:20.130Z,13.72
2019-03-28T11:43:20.362Z,13.78
2019-03-28T11:44:18.613Z,13.84
2019-03-28T11:45:18.603Z,13.82
2019-03-28T11:46:18.611Z,13.92
2019-03-28T11:47:24.306Z,13.91
2019-03-28T11:48:18.580Z,13.95
2019-03-28T11:49:18.576Z,13.98
2019-03-28T11:50:18.551Z,14.1
2019-03-28T11:51:18.568Z,14.13
2019-03-28T11:52:18.546Z,14.2
2019-03-28T11:53:18.568Z,14.09
2019-03-28T11:54:18.538Z,14.05
2019-03-28T11:55:18.552Z,14.17
2019-03-28T11:56:18.648Z,14.11
2019-03-28T11:57:18.560Z,14.16
2019-03-28T11:58:18.642Z,14.21
2019-03-28T11:59:18.578Z,14.13
2019-03-28T12:00:18.570Z,14.17
2019-03-28T12:01:18.592Z,14.27
2019-03-28T12:02:21.111Z,14.33
2019-03-28T12:03:18.555Z,14.42
2019-03-28T12:04:18.496Z,14.49
2019-03-28T12:05:18.543Z,14.56
2019-03-28T12:06:18.587Z,14.64
2019-03-28T12:07:18.652Z,14.74
2019-03-28T12:08:19.818Z,14.72
2019-03-28T12:09:18.592Z,14.62
2019-03-28T12:10:18.667Z,14.65
2019-03-28T12:11:18.571Z,14.78
2019-03-28T12:12:18.511Z,14.89
2019-03-28T12:13:18.596Z,14.97
2019-03-28T12:14:18.546Z,14.87
2019-03-28T12:15:18.517Z,14.99
2019-03-28T12:16:18.602Z,15.02
2019-03-28T12:17:18.562Z,14.96
2019-03-28T12:18:18.567Z,14.85
2019-03-28T12:19:18.548Z,14.86
2019-03-28T12:20:18.613Z,14.99
2019-03-28T12:21:19.417Z,15.11
2019-03-28T12:22:18.574Z,15.14
2019-03-28T12:23:18.510Z,15.2
2019-03-28T12:24:18.505Z,15.16
2019-03-28T12:25:18.551Z,15.17
2019-03-28T12:26:18.519Z,15.1
2019-03-28T12:27:18.536Z,15.23
2019-03-28T12:28:18.512Z,15.34
2019-03-28T12:29:18.625Z,15.25
2019-03-28T12:30:18.541Z,15.29
2019-03-28T12:31:18.495Z,15.2
2019-03-28T12:32:18.507Z,15.19
2019-03-28T12:33:18.477Z,15.31
2019-03-28T12:34:18.491Z,15.29
2019-03-28T12:35:18.506Z,15.41
2019-03-28T12:36:19.298Z,15.4
2019-03-28T12:37:18.482Z,15.38
2019-03-28T12:38:18.618Z,15.19
2019-03-28T12:39:18.480Z,15.28
2019-03-28T12:40:18.485Z,15.36
2019-03-28T12:41:18.608Z,15.4
2019-03-28T12:42:18.626Z,15.37
2019-03-28T12:43:18.487Z,15.29
2019-03-28T12:44:18.480Z,15.29
2019-03-28T12:45:18.546Z,15.37
2019-03-28T12:46:18.464Z,15.4
2019-03-28T12:47:18.482Z,15.29
2019-03-28T12:48:18.468Z,15.41
2019-03-28T12:49:18.495Z,15.49
2019-03-28T12:50:18.470Z,15.47
2019-03-28T12:51:18.470Z,15.38
2019-03-28T12:52:19.024Z,15.3
2019-03-28T12:53:18.487Z,15.22
2019-03-28T12:54:18.469Z,15.3
2019-03-28T12:55:18.666Z,15.33
2019-03-28T12:56:18.491Z,15.39
2019-03-28T12:57:18.434Z,15.37
2019-03-28T12:58:18.451Z,15.4
2019-03-28T12:59:18.519Z,15.3
2019-03-28T13:00:18.463Z,15.18
2019-03-28T13:01:18.454Z,15.04
2019-03-28T13:02:32.379Z,14.96
2019-03-28T13:03:18.470Z,14.96
2019-03-28T13:04:18.732Z,15
2019-03-28T13:05:18.552Z,15.1
2019-03-28T13:06:18.437Z,15.09
2019-03-28T13:07:18.520Z,15.06
2019-03-28T13:08:18.506Z,15.06
2019-03-28T13:09:18.461Z,15.01
2019-03-28T13:10:18.484Z,15.05
2019-03-28T13:11:20.075Z,15.07
2019-03-28T13:12:18.466Z,15.12
2019-03-28T13:13:18.461Z,15.11
2019-03-28T13:14:18.431Z,15.16
2019-03-28T13:15:18.420Z,15.04
2019-03-28T13:16:18.430Z,15.13
2019-03-28T13:17:18.474Z,15.12